Byron Hills, Illinois
Current Conditions -  °F | °C
As of 5:52 AM on Thursday 23 Oct 2014 (Local Time) from KDVN Reporting Station
Clear Clear  
Wind Chill: 34°   Ceiling: Unl
Heat Index: 40°   Visibility: 10mi
Dew Point: 34°   Wind: 9mph
Humidity: 79%   Direction: 140°SE
Pressure: 30.16"   Gusts: NA
Location:  41.595°N, 90.2974°W
Report Text: KDVN 231052Z AUTO 14008KT 10SM CLR 04/01 A3016 RMK AO2 SLP217 T00440011 TSNO
Loading
Personal Weather Stations






























Interactive Weather Map
Tropical Storm Tracking
New forecast layout! Learn more

10-Day Weather Forecast

Advertisements
Track Severe Weather on mobile